createdAt,value
2022-12-12T00:00:37.581Z,55.90
2022-12-12T00:01:37.565Z,55.50
2022-12-12T00:02:43.741Z,56.70
2022-12-12T00:03:38.710Z,58.80
2022-12-12T00:04:37.527Z,55.00
2022-12-12T00:05:37.516Z,58.30
2022-12-12T00:06:37.497Z,55.10
2022-12-12T00:07:37.489Z,56.20
2022-12-12T00:08:37.490Z,57.10
2022-12-12T00:09:37.460Z,54.40
2022-12-12T00:10:37.459Z,56.30
2022-12-12T00:11:37.432Z,53.10
2022-12-12T00:12:37.419Z,55.10
2022-12-12T00:13:37.424Z,55.90
2022-12-12T00:14:37.395Z,53.10
2022-12-12T00:15:37.403Z,51.80
2022-12-12T00:16:37.371Z,55.20
2022-12-12T00:17:37.366Z,55.40
2022-12-12T00:18:37.359Z,56.20
2022-12-12T00:19:37.380Z,54.90
2022-12-12T00:20:37.324Z,59.00
2022-12-12T00:21:37.308Z,56.20
2022-12-12T00:22:37.303Z,64.50
2022-12-12T00:23:37.295Z,85.60
2022-12-12T00:24:37.282Z,82.50
2022-12-12T00:25:37.254Z,72.90
2022-12-12T00:26:37.255Z,72.90
2022-12-12T00:27:37.229Z,67.80
2022-12-12T00:28:37.236Z,69.90
2022-12-12T00:29:37.205Z,64.30
2022-12-12T00:30:37.196Z,62.90
2022-12-12T00:31:37.262Z,63.70
2022-12-12T00:32:37.173Z,69.30
2022-12-12T00:33:37.170Z,72.30
2022-12-12T00:34:37.143Z,68.90
2022-12-12T00:35:37.153Z,71.00
2022-12-12T00:36:37.117Z,72.50
2022-12-12T00:37:37.103Z,67.60
2022-12-12T00:38:37.109Z,68.60
2022-12-12T00:39:37.077Z,68.70
2022-12-12T00:40:37.065Z,68.80
2022-12-12T00:41:37.051Z,65.00
2022-12-12T00:42:37.041Z,63.80
2022-12-12T00:43:37.062Z,63.20
2022-12-12T00:44:37.013Z,57.70
2022-12-12T00:45:37.008Z,60.10
2022-12-12T00:46:37.069Z,58.00
2022-12-12T00:47:36.977Z,59.10
2022-12-12T00:48:36.966Z,57.50
2022-12-12T00:49:36.969Z,58.00
2022-12-12T00:50:36.951Z,55.70
2022-12-12T00:51:36.941Z,59.50
2022-12-12T00:52:36.920Z,56.50
2022-12-12T00:53:36.909Z,61.00
2022-12-12T00:54:36.909Z,56.70
2022-12-12T00:55:36.878Z,57.10
2022-12-12T00:56:36.866Z,58.50
2022-12-12T00:57:36.856Z,59.50
2022-12-12T00:58:36.840Z,55.50
2022-12-12T00:59:36.851Z,57.40
2022-12-12T01:00:36.817Z,56.30
2022-12-12T01:01:36.887Z,57.40
2022-12-12T01:02:36.845Z,57.80
2022-12-12T01:03:36.778Z,58.40
2022-12-12T01:04:36.781Z,58.90
2022-12-12T01:05:36.753Z,60.30
2022-12-12T01:06:36.740Z,59.80
2022-12-12T01:07:36.749Z,57.90
2022-12-12T01:08:36.722Z,58.40
2022-12-12T01:09:36.716Z,58.90
2022-12-12T01:10:36.689Z,59.60
2022-12-12T01:11:36.680Z,57.70
2022-12-12T01:12:36.661Z,59.70
2022-12-12T01:13:36.654Z,58.50
2022-12-12T01:14:36.657Z,61.70
2022-12-12T01:15:36.628Z,58.40
2022-12-12T01:16:36.676Z,57.00
2022-12-12T01:17:36.603Z,59.90
2022-12-12T01:18:36.589Z,58.20
2022-12-12T01:19:36.596Z,57.80
2022-12-12T01:20:36.564Z,61.10
2022-12-12T01:21:36.552Z,61.20
2022-12-12T01:22:36.544Z,61.10
2022-12-12T01:23:36.550Z,66.70
2022-12-12T01:24:36.532Z,58.40
2022-12-12T01:25:36.503Z,60.70
2022-12-12T01:26:36.488Z,61.60
2022-12-12T01:27:36.484Z,60.80
2022-12-12T01:28:36.462Z,61.80
2022-12-12T01:29:36.468Z,63.50
2022-12-12T01:30:36.436Z,64.40
2022-12-12T01:31:36.472Z,61.00
2022-12-12T01:32:36.413Z,64.90
2022-12-12T01:33:36.403Z,63.60
2022-12-12T01:34:36.410Z,65.80
2022-12-12T01:35:36.374Z,62.00
2022-12-12T01:36:36.359Z,63.50
2022-12-12T01:37:36.351Z,59.90
2022-12-12T01:38:36.339Z,62.30
2022-12-12T01:39:36.359Z,65.70
2022-12-12T01:40:36.314Z,62.10
2022-12-12T01:41:36.301Z,61.00
2022-12-12T01:42:36.285Z,60.40
2022-12-12T01:43:36.285Z,57.70
2022-12-12T01:44:36.275Z,59.20
2022-12-12T01:45:36.251Z,55.90
2022-12-12T01:46:36.344Z,58.40
2022-12-12T01:47:36.229Z,58.90
2022-12-12T01:48:36.208Z,62.10
2022-12-12T01:49:36.225Z,60.80
2022-12-12T01:50:36.187Z,58.00
2022-12-12T01:51:36.183Z,56.80
2022-12-12T01:52:36.157Z,53.10
2022-12-12T01:53:36.155Z,54.70
2022-12-12T01:54:36.158Z,55.20
2022-12-12T01:55:36.151Z,53.40
2022-12-12T01:56:36.125Z,55.20
2022-12-12T01:57:36.102Z,55.60
2022-12-12T01:58:36.084Z,57.70
2022-12-12T01:59:36.075Z,58.30
2022-12-12T02:00:36.207Z,58.70
2022-12-12T02:01:36.057Z,57.90
2022-12-12T02:02:36.037Z,57.40
2022-12-12T02:03:36.042Z,57.60
2022-12-12T02:04:36.011Z,56.50
2022-12-12T02:05:36.012Z,58.70
2022-12-12T02:06:35.992Z,56.90
2022-12-12T02:07:35.993Z,54.40
2022-12-12T02:08:35.957Z,58.30
2022-12-12T02:09:35.958Z,57.30
2022-12-12T02:10:35.948Z,58.80
2022-12-12T02:11:35.945Z,56.60
2022-12-12T02:12:35.911Z,58.20
2022-12-12T02:13:35.897Z,54.00
2022-12-12T02:14:35.887Z,58.10
2022-12-12T02:15:35.890Z,56.50
2022-12-12T02:16:35.920Z,56.00
2022-12-12T02:17:35.856Z,55.10
2022-12-12T02:18:35.837Z,56.30
2022-12-12T02:19:35.821Z,60.20
2022-12-12T02:20:35.827Z,58.90
2022-12-12T02:21:35.807Z,60.00
2022-12-12T02:22:35.780Z,58.20
2022-12-12T02:23:35.770Z,59.00
2022-12-12T02:24:35.760Z,55.50
2022-12-12T02:25:35.768Z,56.80
2022-12-12T02:26:35.741Z,54.20
2022-12-12T02:27:35.742Z,55.30
2022-12-12T02:28:35.712Z,56.60
2022-12-12T02:29:35.700Z,55.20
2022-12-12T02:30:35.696Z,57.20
2022-12-12T02:31:35.747Z,57.70
2022-12-12T02:32:35.657Z,56.00
2022-12-12T02:33:35.645Z,55.10
2022-12-12T02:34:35.636Z,58.20
2022-12-12T02:35:35.659Z,53.80
2022-12-12T02:36:35.605Z,59.40
2022-12-12T02:37:35.600Z,53.40
2022-12-12T02:38:35.589Z,55.80
2022-12-12T02:39:35.569Z,55.10
2022-12-12T02:40:35.573Z,55.80
2022-12-12T02:41:35.550Z,57.70
2022-12-12T02:42:35.534Z,52.50
2022-12-12T02:43:35.549Z,53.60
2022-12-12T02:44:35.517Z,52.40
2022-12-12T02:45:35.541Z,52.80
2022-12-12T02:46:35.581Z,53.90
2022-12-12T02:47:35.521Z,54.80
2022-12-12T02:48:35.483Z,56.00
2022-12-12T02:49:35.450Z,52.70
2022-12-12T02:50:35.449Z,52.20
2022-12-12T02:51:35.422Z,54.60
2022-12-12T02:52:35.406Z,55.10
2022-12-12T02:53:35.394Z,52.90
2022-12-12T02:54:35.381Z,56.90
2022-12-12T02:55:36.673Z,55.30
2022-12-12T02:56:35.383Z,56.90
2022-12-12T02:57:35.345Z,54.80
2022-12-12T02:58:35.339Z,56.50
2022-12-12T02:59:35.424Z,54.20
2022-12-12T03:00:35.378Z,56.30
2022-12-12T03:01:35.321Z,56.50
2022-12-12T03:02:35.281Z,56.70
2022-12-12T03:03:35.289Z,56.30
2022-12-12T03:04:35.260Z,55.50
2022-12-12T03:05:35.260Z,55.90
2022-12-12T03:06:39.293Z,55.10
2022-12-12T03:07:35.224Z,57.30
2022-12-12T03:08:35.209Z,55.80
2022-12-12T03:09:35.195Z,58.40
2022-12-12T03:10:35.197Z,57.20
2022-12-12T03:11:35.176Z,53.80
2022-12-12T03:12:35.158Z,58.20
2022-12-12T03:13:35.145Z,58.50
2022-12-12T03:14:35.150Z,58.50
2022-12-12T03:15:35.310Z,58.40
2022-12-12T03:16:35.170Z,56.40
2022-12-12T03:17:35.095Z,58.70
2022-12-12T03:18:35.081Z,55.80
2022-12-12T03:19:35.069Z,56.60
2022-12-12T03:20:35.075Z,56.20
2022-12-12T03:21:35.042Z,57.50
2022-12-12T03:22:35.029Z,54.90
2022-12-12T03:23:35.019Z,58.60
2022-12-12T03:24:35.004Z,57.60
2022-12-12T03:25:35.002Z,61.00
2022-12-12T03:26:34.996Z,57.30
2022-12-12T03:27:34.966Z,55.70
2022-12-12T03:28:34.966Z,59.40
2022-12-12T03:29:34.947Z,57.60
2022-12-12T03:30:34.928Z,57.90
2022-12-12T03:31:35.009Z,58.40
2022-12-12T03:32:34.905Z,58.80
2022-12-12T03:33:34.909Z,59.50
2022-12-12T03:34:34.878Z,60.20
2022-12-12T03:35:34.881Z,60.70
2022-12-12T03:36:34.869Z,60.40
2022-12-12T03:37:34.850Z,55.70
2022-12-12T03:38:34.830Z,56.80
2022-12-12T03:39:34.858Z,60.00
2022-12-12T03:40:34.806Z,57.00
2022-12-12T03:41:34.808Z,60.70
2022-12-12T03:42:34.776Z,58.00
2022-12-12T03:43:34.771Z,58.40
2022-12-12T03:44:41.087Z,60.50
2022-12-12T03:45:34.773Z,59.40
2022-12-12T03:46:34.754Z,61.30
2022-12-12T03:47:34.745Z,57.80
2022-12-12T03:48:34.708Z,60.40
2022-12-12T03:49:34.702Z,59.80
2022-12-12T03:50:34.686Z,61.40
2022-12-12T03:51:34.702Z,60.90
2022-12-12T03:52:34.658Z,58.70
2022-12-12T03:53:34.644Z,56.90
2022-12-12T03:54:34.643Z,57.80
2022-12-12T03:55:34.621Z,60.50
2022-12-12T03:56:34.627Z,56.10
2022-12-12T03:57:34.598Z,61.30
2022-12-12T03:58:34.581Z,60.10
2022-12-12T03:59:34.566Z,62.40
2022-12-12T04:00:34.554Z,61.50
2022-12-12T04:01:34.560Z,60.30
2022-12-12T04:02:34.590Z,60.10
2022-12-12T04:03:34.540Z,61.70
2022-12-12T04:04:34.513Z,56.90
2022-12-12T04:05:34.489Z,61.50
2022-12-12T04:06:34.501Z,61.50
2022-12-12T04:07:34.468Z,62.90
2022-12-12T04:08:34.460Z,60.80
2022-12-12T04:09:34.449Z,61.00
2022-12-12T04:10:34.432Z,61.20
2022-12-12T04:11:34.433Z,61.50
2022-12-12T04:12:34.404Z,61.60
2022-12-12T04:13:34.439Z,61.60
2022-12-12T04:14:34.377Z,64.00
2022-12-12T04:15:34.447Z,64.10
2022-12-12T04:16:34.409Z,65.60
2022-12-12T04:17:34.338Z,62.90
2022-12-12T04:18:34.326Z,64.80
2022-12-12T04:19:34.340Z,63.30
2022-12-12T04:20:34.302Z,61.10
2022-12-12T04:21:34.372Z,63.20
2022-12-12T04:22:34.292Z,66.70
2022-12-12T04:23:34.263Z,61.20
2022-12-12T04:24:34.254Z,61.20
2022-12-12T04:25:34.242Z,63.90
2022-12-12T04:26:34.228Z,61.10
2022-12-12T04:27:34.230Z,63.60
2022-12-12T04:28:34.201Z,64.30
2022-12-12T04:29:34.207Z,63.30
2022-12-12T04:30:34.178Z,60.00
2022-12-12T04:31:34.245Z,64.30
2022-12-12T04:32:34.170Z,66.30
2022-12-12T04:33:34.156Z,64.90
2022-12-12T04:34:34.136Z,64.40
2022-12-12T04:35:34.135Z,66.90
2022-12-12T04:36:34.101Z,62.60
2022-12-12T04:37:34.106Z,67.20
2022-12-12T04:38:34.077Z,63.40
2022-12-12T04:39:34.064Z,67.20
2022-12-12T04:40:34.049Z,68.00
2022-12-12T04:41:34.042Z,68.50
2022-12-12T04:42:34.055Z,69.30
2022-12-12T04:43:34.023Z,65.50
2022-12-12T04:44:34.005Z,65.00
2022-12-12T04:45:34.051Z,67.80
2022-12-12T04:46:33.988Z,71.10
2022-12-12T04:47:33.985Z,72.80
2022-12-12T04:48:38.051Z,72.40
2022-12-12T04:49:33.942Z,74.30
2022-12-12T04:50:33.929Z,71.40
2022-12-12T04:51:33.947Z,76.50
2022-12-12T04:52:33.916Z,77.70
2022-12-12T04:53:33.889Z,87.50
2022-12-12T04:54:33.875Z,84.20
2022-12-12T04:55:33.880Z,86.80
2022-12-12T04:56:33.850Z,84.90
2022-12-12T04:57:33.855Z,86.90
2022-12-12T04:58:33.824Z,84.90
2022-12-12T04:59:33.816Z,91.30
2022-12-12T05:00:33.800Z,88.60
2022-12-12T05:01:33.887Z,92.80
2022-12-12T05:02:33.917Z,92.80
2022-12-12T05:03:33.768Z,85.90
2022-12-12T05:04:33.750Z,87.10
2022-12-12T05:05:33.739Z,83.20
2022-12-12T05:06:33.743Z,84.60
2022-12-12T05:07:39.241Z,83.80
2022-12-12T05:08:34.714Z,86.90
2022-12-12T05:09:33.691Z,82.00
2022-12-12T05:10:33.678Z,83.70
2022-12-12T05:11:33.663Z,82.90
2022-12-12T05:12:33.663Z,78.20
2022-12-12T05:13:33.636Z,83.20
2022-12-12T05:14:33.636Z,89.10
2022-12-12T05:15:33.610Z,87.30
2022-12-12T05:16:33.639Z,82.30
2022-12-12T05:17:33.621Z,87.50
2022-12-12T05:18:33.574Z,86.90
2022-12-12T05:19:33.563Z,84.30
2022-12-12T05:20:33.554Z,80.50
2022-12-12T05:21:33.535Z,84.10
2022-12-12T05:22:33.548Z,83.80
2022-12-12T05:23:34.977Z,81.80
2022-12-12T05:24:33.501Z,84.40
2022-12-12T05:25:33.487Z,79.80
2022-12-12T05:26:33.477Z,82.50
2022-12-12T05:27:33.486Z,85.00
2022-12-12T05:28:33.453Z,86.00
2022-12-12T05:29:33.437Z,86.40
2022-12-12T05:30:33.466Z,82.00
2022-12-12T05:31:33.411Z,83.90
2022-12-12T05:32:33.415Z,85.70
2022-12-12T05:33:33.389Z,87.40
2022-12-12T05:34:33.377Z,83.00
2022-12-12T05:35:33.362Z,86.80
2022-12-12T05:36:33.353Z,84.30
2022-12-12T05:37:33.339Z,95.80
2022-12-12T05:38:33.342Z,87.80
2022-12-12T05:39:33.346Z,97.00
2022-12-12T05:40:33.300Z,93.10
2022-12-12T05:41:34.247Z,96.20
2022-12-12T05:42:33.330Z,91.70
2022-12-12T05:43:33.281Z,92.30
2022-12-12T05:44:33.252Z,98.80
2022-12-12T05:45:33.242Z,99.70
2022-12-12T05:46:33.256Z,94.60
2022-12-12T05:47:33.217Z,96.80
2022-12-12T05:48:33.219Z,99.50
2022-12-12T05:49:39.756Z,98.20
2022-12-12T05:50:33.175Z,99.90
2022-12-12T05:51:33.171Z,96.50
2022-12-12T05:52:33.147Z,103.00
2022-12-12T05:53:39.115Z,101.60
2022-12-12T05:54:33.125Z,98.40
2022-12-12T05:55:33.148Z,97.80
2022-12-12T05:56:33.149Z,98.70
2022-12-12T05:57:33.082Z,98.00
2022-12-12T05:58:33.087Z,93.90
2022-12-12T05:59:33.056Z,95.80
2022-12-12T06:00:33.055Z,97.00
2022-12-12T06:01:33.036Z,98.70
2022-12-12T06:02:33.099Z,101.80
2022-12-12T06:03:33.028Z,97.60
2022-12-12T06:04:33.049Z,97.00
2022-12-12T06:05:32.991Z,94.00
2022-12-12T06:06:32.973Z,100.50
2022-12-12T06:07:32.959Z,94.80
2022-12-12T06:08:33.007Z,92.90
2022-12-12T06:09:32.932Z,325.10
2022-12-12T06:10:32.920Z,208.90
2022-12-12T06:11:32.929Z,147.80
2022-12-12T06:12:32.908Z,135.80
2022-12-12T06:13:32.898Z,99.50
2022-12-12T06:14:32.871Z,102.00
2022-12-12T06:15:32.938Z,96.40
2022-12-12T06:16:32.849Z,95.30
2022-12-12T06:17:33.430Z,101.80
2022-12-12T06:18:32.838Z,96.70
2022-12-12T06:19:32.807Z,106.60
2022-12-12T06:20:32.807Z,107.70
2022-12-12T06:21:32.786Z,108.90
2022-12-12T06:22:32.773Z,109.70
2022-12-12T06:23:32.793Z,104.00
2022-12-12T06:24:32.750Z,107.30
2022-12-12T06:25:32.736Z,96.60
2022-12-12T06:26:32.727Z,99.50
2022-12-12T06:27:32.740Z,114.20
2022-12-12T06:28:32.734Z,104.30
2022-12-12T06:29:32.688Z,109.20
2022-12-12T06:30:32.678Z,105.80
2022-12-12T06:31:32.716Z,107.20
2022-12-12T06:32:32.653Z,113.70
2022-12-12T06:33:32.635Z,117.70
2022-12-12T06:34:32.810Z,113.20
2022-12-12T06:35:32.755Z,117.50
2022-12-12T06:36:32.646Z,109.40
2022-12-12T06:37:32.589Z,110.90
2022-12-12T06:38:32.579Z,108.10
2022-12-12T06:39:32.577Z,109.90
2022-12-12T06:40:32.576Z,107.40
2022-12-12T06:41:32.537Z,108.40
2022-12-12T06:42:32.527Z,110.90
2022-12-12T06:43:32.544Z,108.60
2022-12-12T06:44:32.516Z,106.70
2022-12-12T06:45:32.495Z,98.10
2022-12-12T06:46:32.636Z,105.30
2022-12-12T06:47:32.504Z,105.30
2022-12-12T06:48:32.463Z,103.40
2022-12-12T06:49:32.463Z,105.40
2022-12-12T06:50:32.423Z,99.90
2022-12-12T06:51:32.438Z,101.60
2022-12-12T06:52:32.400Z,99.30
2022-12-12T06:53:32.384Z,104.40
2022-12-12T06:54:32.388Z,96.90
2022-12-12T06:55:32.355Z,97.10
2022-12-12T06:56:32.354Z,99.90
2022-12-12T06:57:32.336Z,95.30
2022-12-12T06:58:32.335Z,99.20
2022-12-12T06:59:32.458Z,99.40
2022-12-12T07:00:32.298Z,96.20
2022-12-12T07:01:32.387Z,93.70
2022-12-12T07:02:32.307Z,95.40
2022-12-12T07:03:32.257Z,92.70
2022-12-12T07:04:32.262Z,91.30
2022-12-12T07:05:32.232Z,86.30
2022-12-12T07:06:32.219Z,87.40
2022-12-12T07:07:32.207Z,84.80
2022-12-12T07:08:32.197Z,86.10
2022-12-12T07:09:32.196Z,87.60
2022-12-12T07:10:32.172Z,88.70
2022-12-12T07:11:32.158Z,87.90
2022-12-12T07:12:32.145Z,88.30
2022-12-12T07:13:32.131Z,89.90
2022-12-12T07:14:32.136Z,85.40
2022-12-12T07:15:32.188Z,86.60
2022-12-12T07:16:32.098Z,84.60
2022-12-12T07:17:32.098Z,86.10
2022-12-12T07:18:32.074Z,81.80
2022-12-12T07:19:32.077Z,86.60
2022-12-12T07:20:32.049Z,84.90
2022-12-12T07:21:32.032Z,89.50
2022-12-12T07:22:32.025Z,84.70
2022-12-12T07:23:32.006Z,85.70
2022-12-12T07:24:32.009Z,87.60
2022-12-12T07:25:31.982Z,83.30
2022-12-12T07:26:31.973Z,80.80
2022-12-12T07:27:31.956Z,83.30
2022-12-12T07:28:31.949Z,79.50
2022-12-12T07:29:31.952Z,89.30
2022-12-12T07:30:31.923Z,82.50
2022-12-12T07:31:31.989Z,80.80
2022-12-12T07:32:31.895Z,81.80
2022-12-12T07:33:42.596Z,83.00
2022-12-12T07:34:32.886Z,83.80
2022-12-12T07:35:31.871Z,81.80
2022-12-12T07:36:31.844Z,86.80
2022-12-12T07:37:31.833Z,86.60
2022-12-12T07:38:31.830Z,84.90
2022-12-12T07:39:31.826Z,95.70
2022-12-12T07:40:31.808Z,81.50
2022-12-12T07:41:31.791Z,84.20
2022-12-12T07:42:31.771Z,82.90
2022-12-12T07:43:33.154Z,85.50
2022-12-12T07:44:31.766Z,84.40
2022-12-12T07:45:31.738Z,84.80
2022-12-12T07:46:31.793Z,90.30
2022-12-12T07:47:31.726Z,93.20
2022-12-12T07:48:31.701Z,84.10
2022-12-12T07:49:31.689Z,86.50
2022-12-12T07:50:31.680Z,78.20
2022-12-12T07:51:31.673Z,79.40
2022-12-12T07:52:31.646Z,80.60
2022-12-12T07:53:31.633Z,78.20
2022-12-12T07:54:31.623Z,82.40
2022-12-12T07:55:31.622Z,78.70
2022-12-12T07:56:31.600Z,82.60
2022-12-12T07:57:31.580Z,77.80
2022-12-12T07:58:31.568Z,79.40
2022-12-12T07:59:31.552Z,78.80
2022-12-12T08:00:31.575Z,80.60
2022-12-12T08:01:31.686Z,81.00
2022-12-12T08:02:31.520Z,81.00
2022-12-12T08:03:31.522Z,81.80
2022-12-12T08:04:31.558Z,82.20
2022-12-12T08:05:31.495Z,78.40
2022-12-12T08:06:31.472Z,87.10
2022-12-12T08:07:31.464Z,84.10
2022-12-12T08:08:31.467Z,79.90
2022-12-12T08:09:31.436Z,80.00
2022-12-12T08:10:31.436Z,80.70
2022-12-12T08:11:31.405Z,82.80
2022-12-12T08:12:31.393Z,84.10
2022-12-12T08:13:31.385Z,83.20
2022-12-12T08:14:31.369Z,84.90
2022-12-12T08:15:31.378Z,81.50
2022-12-12T08:16:31.378Z,84.00
2022-12-12T08:17:31.335Z,82.80
2022-12-12T08:18:31.318Z,77.20
2022-12-12T08:19:31.337Z,79.40
2022-12-12T08:20:31.324Z,73.70
2022-12-12T08:21:31.280Z,73.50
2022-12-12T08:22:31.268Z,72.40
2022-12-12T08:23:31.257Z,74.90
2022-12-12T08:24:31.250Z,69.10
2022-12-12T08:25:31.241Z,71.00
2022-12-12T08:26:31.226Z,73.50
2022-12-12T08:27:31.209Z,74.80
2022-12-12T08:28:31.196Z,69.90
2022-12-12T08:29:31.200Z,70.70
2022-12-12T08:30:31.180Z,76.80
2022-12-12T08:31:31.224Z,73.40
2022-12-12T08:32:31.144Z,71.10
2022-12-12T08:33:31.127Z,70.50
2022-12-12T08:34:31.120Z,71.90
2022-12-12T08:35:31.250Z,68.80
2022-12-12T08:36:31.090Z,68.50
2022-12-12T08:37:31.078Z,65.50
2022-12-12T08:38:31.066Z,68.60
2022-12-12T08:39:31.055Z,66.30
2022-12-12T08:40:31.054Z,65.80
2022-12-12T08:41:31.023Z,60.50
2022-12-12T08:42:31.016Z,61.40
2022-12-12T08:43:31.003Z,60.40
2022-12-12T08:44:30.989Z,59.20
2022-12-12T08:45:30.988Z,59.60
2022-12-12T08:46:31.009Z,56.40
2022-12-12T08:47:30.950Z,55.70
2022-12-12T08:48:30.939Z,55.10
2022-12-12T08:49:30.931Z,54.80
2022-12-12T08:50:30.918Z,51.20
2022-12-12T08:51:30.935Z,56.10
2022-12-12T08:52:30.895Z,56.70
2022-12-12T08:53:30.887Z,55.20
2022-12-12T08:54:30.862Z,50.90
2022-12-12T08:55:30.847Z,57.00
2022-12-12T08:56:30.848Z,54.10
2022-12-12T08:57:30.821Z,55.80
2022-12-12T08:58:30.829Z,54.80
2022-12-12T08:59:30.799Z,55.40
2022-12-12T09:00:30.782Z,53.90
2022-12-12T09:01:30.887Z,51.10
2022-12-12T09:02:30.933Z,55.20
2022-12-12T09:03:30.750Z,53.10
2022-12-12T09:04:30.740Z,56.70
2022-12-12T09:05:30.720Z,54.70
2022-12-12T09:06:30.723Z,53.30
2022-12-12T09:07:30.721Z,49.90
2022-12-12T09:08:30.773Z,52.40
2022-12-12T09:09:30.671Z,52.70
2022-12-12T09:10:30.660Z,49.80
2022-12-12T09:11:30.668Z,52.70
2022-12-12T09:12:30.641Z,52.10
2022-12-12T09:13:30.618Z,51.00
2022-12-12T09:14:30.615Z,51.50
2022-12-12T09:15:30.593Z,50.90
2022-12-12T09:16:30.720Z,48.60
2022-12-12T09:17:30.568Z,50.30
2022-12-12T09:18:30.562Z,55.80
2022-12-12T09:19:30.553Z,50.70
2022-12-12T09:20:30.534Z,54.70
2022-12-12T09:21:30.529Z,51.70
2022-12-12T09:22:30.508Z,53.90
2022-12-12T09:23:30.545Z,50.40
2022-12-12T09:24:30.486Z,53.90
2022-12-12T09:25:30.469Z,52.00
2022-12-12T09:26:30.470Z,50.40
2022-12-12T09:27:30.440Z,51.70
2022-12-12T09:28:30.434Z,54.50
2022-12-12T09:29:30.419Z,52.30
2022-12-12T09:30:30.424Z,56.10
2022-12-12T09:31:30.461Z,54.40
2022-12-12T09:32:30.376Z,55.20
2022-12-12T09:33:30.373Z,58.10
2022-12-12T09:34:30.353Z,57.60
2022-12-12T09:35:30.355Z,59.70
2022-12-12T09:36:30.343Z,57.00
2022-12-12T09:37:30.316Z,58.10
2022-12-12T09:38:30.301Z,60.40
2022-12-12T09:39:30.320Z,59.60
2022-12-12T09:40:30.293Z,61.90
2022-12-12T09:41:30.281Z,64.60
2022-12-12T09:42:30.257Z,63.70
2022-12-12T09:43:30.242Z,65.30
2022-12-12T09:44:30.233Z,63.00
2022-12-12T09:45:30.233Z,63.40
2022-12-12T09:46:30.218Z,65.30
2022-12-12T09:47:30.189Z,64.90
2022-12-12T09:48:30.182Z,65.10
2022-12-12T09:49:30.164Z,62.10
2022-12-12T09:50:30.149Z,61.50
2022-12-12T09:51:30.155Z,64.10
2022-12-12T09:52:31.281Z,61.10
2022-12-12T09:53:30.119Z,58.60
2022-12-12T09:54:30.098Z,49.20
2022-12-12T09:55:30.114Z,51.50
2022-12-12T09:56:30.093Z,49.40
2022-12-12T09:57:30.062Z,48.60
2022-12-12T09:58:30.047Z,48.20
2022-12-12T09:59:30.034Z,44.80
2022-12-12T10:00:30.175Z,42.60
2022-12-12T10:01:30.028Z,40.00
2022-12-12T10:02:30.031Z,40.90
2022-12-12T10:03:29.981Z,39.20
2022-12-12T10:04:29.969Z,39.90
2022-12-12T10:05:29.961Z,39.40
2022-12-12T10:06:38.019Z,36.40
2022-12-12T10:07:30.932Z,39.90
2022-12-12T10:08:29.994Z,40.80
2022-12-12T10:09:29.906Z,37.50
2022-12-12T10:10:29.888Z,37.50
2022-12-12T10:11:29.912Z,44.70
2022-12-12T10:12:29.867Z,42.80
2022-12-12T10:13:29.857Z,40.20
2022-12-12T10:14:29.839Z,42.70
2022-12-12T10:15:29.827Z,48.00
2022-12-12T10:16:29.844Z,44.90
2022-12-12T10:17:29.814Z,40.10
2022-12-12T10:18:29.786Z,44.40
2022-12-12T10:19:29.777Z,43.40
2022-12-12T10:20:29.759Z,44.30
2022-12-12T10:21:29.755Z,47.40
2022-12-12T10:22:29.755Z,46.20
2022-12-12T10:23:29.721Z,47.60
2022-12-12T10:24:29.714Z,46.50
2022-12-12T10:25:29.699Z,50.10
2022-12-12T10:26:29.686Z,48.20
2022-12-12T10:27:29.721Z,48.20
2022-12-12T10:28:29.660Z,48.10
2022-12-12T10:29:29.642Z,52.60
2022-12-12T10:30:29.629Z,49.40
2022-12-12T10:31:29.671Z,47.20
2022-12-12T10:32:29.622Z,48.90
2022-12-12T10:33:29.590Z,46.80
2022-12-12T10:34:29.583Z,47.10
2022-12-12T10:35:30.015Z,47.00
2022-12-12T10:36:29.557Z,44.00
2022-12-12T10:37:29.556Z,45.90
2022-12-12T10:38:29.528Z,45.00
2022-12-12T10:39:29.518Z,47.40
2022-12-12T10:40:29.504Z,44.80
2022-12-12T10:41:29.490Z,44.00
2022-12-12T10:42:29.491Z,44.20
2022-12-12T10:43:29.494Z,43.60
2022-12-12T10:44:29.456Z,44.90
2022-12-12T10:45:29.535Z,43.30
2022-12-12T10:46:29.573Z,46.80
2022-12-12T10:47:29.434Z,45.50
2022-12-12T10:48:29.407Z,46.60
2022-12-12T10:49:29.392Z,46.60
2022-12-12T10:50:29.378Z,46.60
2022-12-12T10:51:29.365Z,46.60
2022-12-12T10:52:29.369Z,45.30
2022-12-12T10:53:29.347Z,44.50
2022-12-12T10:54:29.327Z,48.20
2022-12-12T10:55:29.323Z,46.90
2022-12-12T10:56:29.318Z,51.40
2022-12-12T10:57:29.308Z,51.60
2022-12-12T10:58:29.279Z,59.40
2022-12-12T10:59:29.288Z,51.10
2022-12-12T11:00:29.256Z,49.40
2022-12-12T11:02:00.611Z,49.60
2022-12-12T11:02:29.398Z,46.00
2022-12-12T11:03:29.314Z,48.10
2022-12-12T11:04:29.200Z,44.90
2022-12-12T11:05:29.190Z,42.80
2022-12-12T11:06:29.179Z,44.50
2022-12-12T11:07:29.178Z,43.50
2022-12-12T11:08:29.233Z,41.20
2022-12-12T11:09:29.155Z,41.70
2022-12-12T11:10:33.714Z,46.40
2022-12-12T11:11:29.117Z,42.20
2022-12-12T11:12:29.133Z,38.00
2022-12-12T11:13:29.094Z,40.30
2022-12-12T11:14:29.073Z,42.40
2022-12-12T11:15:29.087Z,42.80
2022-12-12T11:16:29.120Z,40.10
2022-12-12T11:17:29.034Z,37.80
2022-12-12T11:18:29.038Z,37.80
2022-12-12T11:19:29.009Z,37.20
2022-12-12T11:20:29.003Z,38.50
2022-12-12T11:21:28.985Z,37.50
2022-12-12T11:22:28.977Z,37.80
2022-12-12T11:23:28.975Z,35.60
2022-12-12T11:24:28.959Z,39.10
2022-12-12T11:25:28.936Z,37.90
2022-12-12T11:26:28.925Z,38.00
2022-12-12T11:27:28.917Z,37.60
2022-12-12T11:28:28.920Z,39.30
2022-12-12T11:29:28.882Z,41.60
2022-12-12T11:30:28.869Z,38.60
2022-12-12T11:31:28.968Z,38.80
2022-12-12T11:32:28.846Z,39.20
2022-12-12T11:33:28.846Z,37.70
2022-12-12T11:34:28.816Z,40.20
2022-12-12T11:35:28.808Z,38.70
2022-12-12T11:36:28.794Z,37.40
2022-12-12T11:37:28.783Z,37.30
2022-12-12T11:38:28.784Z,38.00
2022-12-12T11:39:28.756Z,41.30
2022-12-12T11:40:28.742Z,41.00
2022-12-12T11:41:28.779Z,37.40
2022-12-12T11:42:28.722Z,38.80
2022-12-12T11:43:28.719Z,35.00
2022-12-12T11:44:28.697Z,33.40
2022-12-12T11:45:28.741Z,33.30
2022-12-12T11:46:28.669Z,33.10
2022-12-12T11:47:28.679Z,30.90
2022-12-12T11:48:28.657Z,30.50
2022-12-12T11:49:28.631Z,31.30
2022-12-12T11:50:28.616Z,29.90
2022-12-12T11:51:28.601Z,29.60
2022-12-12T11:52:28.588Z,28.10
2022-12-12T11:53:28.593Z,30.30
2022-12-12T11:54:28.563Z,29.40
2022-12-12T11:55:28.565Z,25.60
2022-12-12T11:56:28.542Z,27.80
2022-12-12T11:57:28.522Z,27.10
2022-12-12T11:58:28.528Z,27.20
2022-12-12T11:59:28.496Z,26.50
2022-12-12T12:00:28.481Z,28.30
2022-12-12T12:01:28.474Z,28.90
2022-12-12T12:02:28.454Z,26.40
2022-12-12T12:03:28.593Z,24.20
2022-12-12T12:04:28.535Z,25.80
2022-12-12T12:05:28.417Z,25.00
2022-12-12T12:06:28.405Z,26.10
2022-12-12T12:07:28.393Z,26.30
2022-12-12T12:08:28.459Z,26.20
2022-12-12T12:09:28.365Z,27.60
2022-12-12T12:10:28.350Z,25.30
2022-12-12T12:11:28.347Z,26.40
2022-12-12T12:12:28.328Z,25.50
2022-12-12T12:13:28.326Z,26.20
2022-12-12T12:14:28.302Z,27.10
2022-12-12T12:15:28.288Z,28.10
2022-12-12T12:16:28.350Z,26.90
2022-12-12T12:17:28.260Z,26.80
2022-12-12T12:18:28.505Z,25.20
2022-12-12T12:19:28.254Z,25.40
2022-12-12T12:20:28.224Z,27.60
2022-12-12T12:21:28.211Z,26.90
2022-12-12T12:22:28.194Z,26.20
2022-12-12T12:23:28.194Z,25.60
2022-12-12T12:24:28.172Z,25.90
2022-12-12T12:25:28.159Z,26.50
2022-12-12T12:26:28.143Z,25.60
2022-12-12T12:27:28.131Z,26.20
2022-12-12T12:28:28.133Z,24.90
2022-12-12T12:29:28.102Z,27.00
2022-12-12T12:30:28.144Z,27.30
2022-12-12T12:31:28.081Z,26.40
2022-12-12T12:32:28.061Z,25.30
2022-12-12T12:33:28.069Z,26.50
2022-12-12T12:34:28.036Z,25.70
2022-12-12T12:35:28.048Z,27.60
2022-12-12T12:36:28.011Z,24.30
2022-12-12T12:37:28.007Z,24.90
2022-12-12T12:38:28.007Z,24.70
2022-12-12T12:39:27.974Z,25.60
2022-12-12T12:40:27.957Z,27.70
2022-12-12T12:41:27.947Z,27.10
2022-12-12T12:42:27.931Z,27.70
2022-12-12T12:43:27.927Z,28.50
2022-12-12T12:44:27.928Z,30.70
2022-12-12T12:45:27.890Z,29.60
2022-12-12T12:46:27.912Z,28.20
2022-12-12T12:47:27.865Z,27.40
2022-12-12T12:48:27.853Z,27.40
2022-12-12T12:49:27.861Z,28.00
2022-12-12T12:50:27.836Z,29.20
2022-12-12T12:51:27.838Z,27.20